createdAt,value
2018-02-11T00:00:45.939Z,100684.64
2018-02-11T00:03:12.109Z,100678.94
2018-02-11T00:05:38.271Z,100679.31
2018-02-11T00:08:04.900Z,100670.98
2018-02-11T00:10:31.362Z,100673.20
2018-02-11T00:12:57.518Z,100666.69
2018-02-11T00:15:24.083Z,100664.94
2018-02-11T00:17:50.504Z,100663.63
2018-02-11T00:20:16.670Z,100660.61
2018-02-11T00:22:42.898Z,100648.82
2018-02-11T00:25:09.047Z,100643.98
2018-02-11T00:27:35.198Z,100645.77
2018-02-11T00:30:01.704Z,100643.12
2018-02-11T00:32:27.892Z,100635.26
2018-02-11T00:34:54.072Z,100631.80
2018-02-11T00:37:26.647Z,100628.37
2018-02-11T00:39:52.811Z,100621.38
2018-02-11T00:42:18.971Z,100613.13
2018-02-11T00:44:45.194Z,100607.05
2018-02-11T00:47:11.639Z,100603.49
2018-02-11T00:49:37.803Z,100601.31
2018-02-11T00:52:04.015Z,100597.82
2018-02-11T00:54:30.175Z,100588.72
2018-02-11T00:56:56.656Z,100586.50
2018-02-11T00:59:22.859Z,100587.41
2018-02-11T01:01:49.020Z,100580.45
2018-02-11T01:04:15.443Z,100577.03
2018-02-11T01:06:41.664Z,100565.65
2018-02-11T01:09:07.874Z,100561.32
2018-02-11T01:11:34.339Z,100556.11
2018-02-11T01:14:00.537Z,100553.50
2018-02-11T01:16:26.687Z,100542.62
2018-02-11T01:18:52.879Z,100547.89
2018-02-11T01:21:19.114Z,100532.67
2018-02-11T01:23:45.275Z,100530.53
2018-02-11T01:26:11.415Z,100530.50
2018-02-11T01:28:37.630Z,100524.79
2018-02-11T01:31:03.811Z,100520.43
2018-02-11T01:33:29.986Z,100519.99
2018-02-11T01:35:56.203Z,100515.09
2018-02-11T01:38:22.387Z,100503.31
2018-02-11T01:40:48.566Z,100495.93
2018-02-11T01:43:14.772Z,100495.05
2018-02-11T01:45:40.950Z,100496.77
2018-02-11T01:48:07.116Z,100491.97
2018-02-11T01:50:33.575Z,100482.47
2018-02-11T01:52:59.747Z,100478.07
2018-02-11T01:55:26.277Z,100478.04
2018-02-11T01:57:52.430Z,100466.29
2018-02-11T02:00:18.641Z,100458.37
2018-02-11T02:02:45.184Z,100451.36
2018-02-11T02:05:11.363Z,100440.87
2018-02-11T02:07:37.524Z,100437.42
2018-02-11T02:10:03.720Z,100431.72
2018-02-11T02:12:29.863Z,100433.06
2018-02-11T02:14:56.034Z,100421.28
2018-02-11T02:17:22.212Z,100416.52
2018-02-11T02:19:48.722Z,100405.58
2018-02-11T02:22:14.931Z,100405.61
2018-02-11T02:24:41.386Z,100399.94
2018-02-11T02:27:07.562Z,100388.95
2018-02-11T02:29:34.045Z,100389.39
2018-02-11T02:32:00.211Z,100380.63
2018-02-11T02:34:26.402Z,100379.72
2018-02-11T02:36:52.613Z,100377.10
2018-02-11T02:39:18.769Z,100361.39
2018-02-11T02:41:44.973Z,100358.81
2018-02-11T02:44:11.484Z,100351.91
2018-02-11T02:46:37.640Z,100341.06
2018-02-11T02:49:03.820Z,100327.50
2018-02-11T02:51:30.340Z,100326.23
2018-02-11T02:53:56.500Z,100320.99
2018-02-11T02:56:22.652Z,100303.11
2018-02-11T02:58:48.878Z,100295.25
2018-02-11T03:01:15.056Z,100285.66
2018-02-11T03:03:41.230Z,100276.56
2018-02-11T03:06:07.422Z,100270.93
2018-02-11T03:08:33.593Z,100256.53
2018-02-11T03:11:00.435Z,100254.75
2018-02-11T03:13:26.603Z,100250.78
2018-02-11T03:15:52.779Z,100241.23
2018-02-11T03:18:18.985Z,100219.45
2018-02-11T03:20:45.123Z,100211.20
2018-02-11T03:23:11.715Z,100209.45
2018-02-11T03:25:37.869Z,100206.04
2018-02-11T03:28:04.045Z,100201.64
2018-02-11T03:30:30.604Z,100195.97
2018-02-11T03:32:56.779Z,100197.71
2018-02-11T03:35:22.933Z,100191.56
2018-02-11T03:37:49.461Z,100183.28
2018-02-11T03:40:15.612Z,100182.01
2018-02-11T03:42:42.017Z,100173.72
2018-02-11T03:45:08.276Z,100168.02
2018-02-11T03:47:34.423Z,100156.74
2018-02-11T03:50:00.593Z,100150.67
2018-02-11T03:52:26.808Z,100142.83
2018-02-11T03:54:52.974Z,100135.89
2018-02-11T03:57:19.160Z,100118.00
2018-02-11T03:59:45.775Z,100117.60
2018-02-11T04:02:11.962Z,100110.23
2018-02-11T04:04:38.139Z,100101.47
2018-02-11T04:07:04.603Z,100106.66
2018-02-11T04:09:30.766Z,100093.92
2018-02-11T04:11:57.266Z,100086.03
2018-02-11T04:14:23.860Z,100085.56
2018-02-11T04:16:50.046Z,100078.14
2018-02-11T04:19:16.254Z,100069.02
2018-02-11T04:21:42.463Z,100062.52
2018-02-11T04:24:08.635Z,100052.92
2018-02-11T04:26:34.785Z,100049.04
2018-02-11T04:29:01.291Z,100034.25
2018-02-11T04:31:27.432Z,100028.97
2018-02-11T04:33:53.600Z,100019.81
2018-02-11T04:36:19.828Z,100009.30
2018-02-11T04:38:45.984Z,99998.95
2018-02-11T04:41:12.172Z,99997.12
2018-02-11T04:43:38.352Z,99985.75
2018-02-11T04:46:04.555Z,99978.85
2018-02-11T04:48:30.994Z,99972.83
2018-02-11T04:50:57.430Z,99965.02
2018-02-11T04:53:23.640Z,99964.98
2018-02-11T04:55:49.800Z,99958.95
2018-02-11T04:58:15.948Z,99948.57
2018-02-11T05:00:42.175Z,99938.11
2018-02-11T05:03:08.323Z,99932.87
2018-02-11T05:05:34.489Z,99925.42
2018-02-11T05:08:01.025Z,99927.69
2018-02-11T05:10:27.172Z,99923.81
2018-02-11T05:12:53.320Z,99918.18
2018-02-11T05:15:19.581Z,99910.37
2018-02-11T05:17:46.058Z,99912.59
2018-02-11T05:20:12.226Z,99903.88
2018-02-11T05:22:38.703Z,99899.95
2018-02-11T05:25:04.870Z,99895.16
2018-02-11T05:27:31.399Z,99894.67
2018-02-11T05:29:57.556Z,99891.10
2018-02-11T05:32:23.712Z,99893.63
2018-02-11T05:34:50.254Z,99886.59
2018-02-11T05:37:16.402Z,99875.22
2018-02-11T05:39:42.616Z,99865.44
2018-02-11T05:42:08.794Z,99857.55
2018-02-11T05:44:35.024Z,99850.61
2018-02-11T05:47:01.235Z,99838.41
2018-02-11T05:49:27.383Z,99831.81
2018-02-11T05:51:53.542Z,99820.56
2018-02-11T05:54:19.769Z,99809.31
2018-02-11T05:56:45.955Z,99804.57
2018-02-11T05:59:12.141Z,99796.71
2018-02-11T06:01:38.406Z,99790.55
2018-02-11T06:04:04.882Z,99780.91
2018-02-11T06:06:31.029Z,99767.78
2018-02-11T06:08:57.550Z,99766.56
2018-02-11T06:11:23.724Z,99767.40
2018-02-11T06:13:50.209Z,99758.23
2018-02-11T06:16:16.434Z,99756.06
2018-02-11T06:18:42.685Z,99746.52
2018-02-11T06:21:08.864Z,99741.41
2018-02-11T06:23:35.098Z,99737.97
2018-02-11T06:26:01.276Z,99735.70
2018-02-11T06:28:27.446Z,99728.34
2018-02-11T06:30:53.672Z,99730.18
2018-02-11T06:33:19.826Z,99724.45
2018-02-11T06:35:45.981Z,99717.47
2018-02-11T06:38:12.794Z,99713.89
2018-02-11T06:40:38.953Z,99708.70
2018-02-11T06:43:05.115Z,99703.08
2018-02-11T06:45:31.624Z,99697.90
2018-02-11T06:47:57.773Z,99697.86
2018-02-11T06:50:24.247Z,99692.67
2018-02-11T06:52:50.454Z,99686.17
2018-02-11T06:55:16.660Z,99682.20
2018-02-11T06:57:49.017Z,99677.84
2018-02-11T07:00:15.174Z,99678.34
2018-02-11T07:02:41.401Z,99671.45
2018-02-11T07:05:07.573Z,99668.84
2018-02-11T07:07:33.743Z,99665.34
2018-02-11T07:10:00.352Z,99659.68
2018-02-11T07:12:26.499Z,99657.50
2018-02-11T07:14:52.672Z,99654.48
2018-02-11T07:17:19.206Z,99653.76
2018-02-11T07:19:45.741Z,99656.77
2018-02-11T07:22:11.959Z,99654.53
2018-02-11T07:24:38.146Z,99644.94
2018-02-11T07:27:04.332Z,99647.12
2018-02-11T07:29:30.897Z,99639.23
2018-02-11T07:31:57.066Z,99632.25
2018-02-11T07:34:23.264Z,99637.92
2018-02-11T07:36:49.502Z,99645.72
2018-02-11T07:39:15.698Z,99623.91
2018-02-11T07:41:42.208Z,99633.86
2018-02-11T07:44:08.738Z,99623.33
2018-02-11T07:46:34.895Z,99629.83
2018-02-11T07:49:01.068Z,99626.81
2018-02-11T07:51:27.691Z,99616.74
2018-02-11T07:53:53.861Z,99606.67
2018-02-11T07:56:20.294Z,99622.84
2018-02-11T07:58:46.526Z,99610.54
2018-02-11T08:01:12.952Z,99604.81
2018-02-11T08:03:39.395Z,99605.20
2018-02-11T08:06:05.587Z,99594.34
2018-02-11T08:08:31.783Z,99596.48
2018-02-11T08:10:58.049Z,99589.89
2018-02-11T08:13:24.223Z,99581.50
2018-02-11T08:15:50.394Z,99586.78
2018-02-11T08:18:16.611Z,99573.36
2018-02-11T08:20:44.095Z,99570.64
2018-02-11T08:23:10.484Z,99576.31
2018-02-11T08:25:37.077Z,99575.88
2018-02-11T08:28:03.512Z,99564.93
2018-02-11T08:30:29.674Z,99554.56
2018-02-11T08:32:55.905Z,99555.44
2018-02-11T08:35:22.061Z,99560.62
2018-02-11T08:37:48.243Z,99550.54
2018-02-11T08:40:14.443Z,99550.54
2018-02-11T08:42:40.880Z,99552.86
2018-02-11T08:45:07.450Z,99543.80
2018-02-11T08:47:33.621Z,99557.66
2018-02-11T08:49:59.791Z,99552.33
2018-02-11T08:52:26.327Z,99554.61
2018-02-11T08:54:52.493Z,99542.89
2018-02-11T08:57:18.657Z,99550.89
2018-02-11T08:59:44.839Z,99549.91
2018-02-11T09:02:11.005Z,99548.45
2018-02-11T09:04:37.282Z,99534.44
2018-02-11T09:07:03.452Z,99534.45
2018-02-11T09:09:29.614Z,99540.07
2018-02-11T09:11:55.823Z,99524.38
2018-02-11T09:14:22.002Z,99533.53
2018-02-11T09:16:48.161Z,99534.84
2018-02-11T09:19:14.713Z,99536.58
2018-02-11T09:21:40.984Z,99536.19
2018-02-11T09:24:07.166Z,99532.32
2018-02-11T09:26:33.739Z,99527.47
2018-02-11T09:29:00.238Z,99530.03
2018-02-11T09:31:26.418Z,99532.22
2018-02-11T09:33:52.609Z,99526.59
2018-02-11T09:36:18.823Z,99524.80
2018-02-11T09:38:44.983Z,99521.20
2018-02-11T09:41:11.480Z,99521.98
2018-02-11T09:43:38.331Z,99528.52
2018-02-11T09:46:04.491Z,99517.62
2018-02-11T09:48:30.913Z,99520.77
2018-02-11T09:50:57.478Z,99518.65
2018-02-11T09:53:23.953Z,99519.46
2018-02-11T09:55:50.122Z,99530.36
2018-02-11T09:58:16.777Z,99519.89
2018-02-11T10:00:42.940Z,99521.69
2018-02-11T10:03:09.123Z,99521.31
2018-02-11T10:05:35.299Z,99526.78
2018-02-11T10:08:01.451Z,99522.20
2018-02-11T10:10:27.655Z,99519.80
2018-02-11T10:12:53.805Z,99528.37
2018-02-11T10:15:20.959Z,99520.63
2018-02-11T10:17:47.211Z,99521.06
2018-02-11T10:20:13.391Z,99526.73
2018-02-11T10:22:39.571Z,99529.41
2018-02-11T10:25:06.182Z,99525.09
2018-02-11T10:27:32.355Z,99532.84
2018-02-11T10:29:58.614Z,99535.50
2018-02-11T10:32:24.850Z,99535.56
2018-02-11T10:34:51.022Z,99546.36
2018-02-11T10:37:17.499Z,99548.94
2018-02-11T10:39:44.336Z,99545.88
2018-02-11T10:42:10.771Z,99539.28
2018-02-11T10:44:36.931Z,99547.41
2018-02-11T10:47:04.032Z,99543.04
2018-02-11T10:49:30.197Z,99538.73
2018-02-11T10:51:56.702Z,99539.60
2018-02-11T10:54:22.887Z,99532.45
2018-02-11T10:56:49.078Z,99542.73
2018-02-11T10:59:15.288Z,99537.05
2018-02-11T11:01:41.458Z,99541.07
2018-02-11T11:04:07.643Z,99539.82
2018-02-11T11:06:33.821Z,99540.32
2018-02-11T11:08:59.981Z,99548.66
2018-02-11T11:11:26.526Z,99542.70
2018-02-11T11:13:52.698Z,99545.81
2018-02-11T11:16:18.856Z,99541.36
2018-02-11T11:18:45.042Z,99543.76
2018-02-11T11:21:11.216Z,99547.04
2018-02-11T11:23:37.479Z,99544.74
2018-02-11T11:26:03.663Z,99541.30
2018-02-11T11:28:29.833Z,99530.51
2018-02-11T11:30:56.065Z,99544.91
2018-02-11T11:33:22.231Z,99533.49
2018-02-11T11:35:48.380Z,99541.58
2018-02-11T11:38:14.602Z,99526.14
2018-02-11T11:40:40.814Z,99542.67
2018-02-11T11:43:06.963Z,99535.25
2018-02-11T11:45:33.173Z,99536.45
2018-02-11T11:47:59.339Z,99538.91
2018-02-11T11:50:25.525Z,99528.27
2018-02-11T11:52:52.101Z,99527.66
2018-02-11T11:55:18.536Z,99523.78
2018-02-11T11:57:44.691Z,99528.66
2018-02-11T12:00:10.893Z,99529.24
2018-02-11T12:02:37.052Z,99522.03
2018-02-11T12:05:03.224Z,99516.17
2018-02-11T12:07:29.400Z,99518.83
2018-02-11T12:09:55.564Z,99515.23
2018-02-11T12:12:21.794Z,99521.89
2018-02-11T12:14:47.956Z,99515.52
2018-02-11T12:17:14.122Z,99514.63
2018-02-11T12:19:40.356Z,99510.16
2018-02-11T12:22:06.607Z,99506.72
2018-02-11T12:24:32.815Z,99507.39
2018-02-11T12:26:59.359Z,99501.88
2018-02-11T12:29:25.508Z,99499.38
2018-02-11T12:31:51.673Z,99498.06
2018-02-11T12:34:17.887Z,99505.00
2018-02-11T12:36:44.051Z,99507.13
2018-02-11T12:39:10.552Z,99501.77
2018-02-11T12:41:36.705Z,99509.66
2018-02-11T12:44:02.856Z,99499.34
2018-02-11T12:46:29.734Z,99498.63
2018-02-11T12:48:55.881Z,99495.17
2018-02-11T12:51:22.041Z,99502.67
2018-02-11T12:53:48.564Z,99500.92
2018-02-11T12:56:15.058Z,99499.62
2018-02-11T12:58:41.247Z,99503.67
2018-02-11T13:01:07.721Z,99496.95
2018-02-11T13:03:34.255Z,99507.34
2018-02-11T13:06:00.434Z,99510.09
2018-02-11T13:08:26.928Z,99500.22
2018-02-11T13:10:53.148Z,99505.20
2018-02-11T13:13:19.322Z,99511.50
2018-02-11T13:15:45.583Z,99510.73
2018-02-11T13:18:11.751Z,99512.92
2018-02-11T13:20:37.953Z,99516.75
2018-02-11T13:23:04.244Z,99514.50
2018-02-11T13:25:30.423Z,99524.93
2018-02-11T13:27:56.591Z,99525.40
2018-02-11T13:30:22.910Z,99521.45
2018-02-11T13:32:49.041Z,99518.28
2018-02-11T13:35:15.190Z,99515.65
2018-02-11T13:37:41.409Z,99512.00
2018-02-11T13:40:07.570Z,99514.17
2018-02-11T13:42:33.780Z,99509.61
2018-02-11T13:44:59.946Z,99509.51
2018-02-11T13:47:26.110Z,99519.46
2018-02-11T13:49:52.308Z,99519.91
2018-02-11T13:52:18.464Z,99517.41
2018-02-11T13:54:44.938Z,99527.66
2018-02-11T13:57:11.184Z,99519.47
2018-02-11T13:59:37.713Z,99518.17
2018-02-11T14:02:03.856Z,99514.23
2018-02-11T14:04:30.079Z,99522.44
2018-02-11T14:06:56.258Z,99520.73
2018-02-11T14:09:22.729Z,99521.98
2018-02-11T14:11:49.255Z,99523.67
2018-02-11T14:14:15.827Z,99533.59
2018-02-11T14:16:41.994Z,99526.84
2018-02-11T14:19:08.451Z,99532.70
2018-02-11T14:21:34.780Z,99532.11
2018-02-11T14:24:00.936Z,99547.92
2018-02-11T14:26:27.176Z,99542.13
2018-02-11T14:28:53.394Z,99543.39
2018-02-11T14:31:19.649Z,99547.38
2018-02-11T14:33:45.835Z,99553.34
2018-02-11T14:36:12.067Z,99554.00
2018-02-11T14:38:38.219Z,99548.75
2018-02-11T14:41:04.393Z,99554.05
2018-02-11T14:43:30.619Z,99554.32
2018-02-11T14:45:56.767Z,99552.22
2018-02-11T14:48:22.933Z,99560.02
2018-02-11T14:50:49.164Z,99563.42
2018-02-11T14:53:15.329Z,99564.22
2018-02-11T14:55:41.482Z,99571.91
2018-02-11T14:58:07.722Z,99575.25
2018-02-11T15:00:33.872Z,99562.10
2018-02-11T15:03:00.040Z,99567.69
2018-02-11T15:05:26.276Z,99566.64
2018-02-11T15:07:58.643Z,99571.31
2018-02-11T15:10:25.086Z,99571.10
2018-02-11T15:12:51.658Z,99565.59
2018-02-11T15:15:18.149Z,99569.56
2018-02-11T15:17:44.690Z,99568.31
2018-02-11T15:20:10.911Z,99580.70
2018-02-11T15:22:37.065Z,99576.06
2018-02-11T15:25:03.577Z,99588.83
2018-02-11T15:27:30.170Z,99572.30
2018-02-11T15:29:56.342Z,99585.55
2018-02-11T15:32:22.520Z,99576.53
2018-02-11T15:34:49.019Z,99577.02
2018-02-11T15:37:15.540Z,99578.89
2018-02-11T15:39:41.803Z,99577.69
2018-02-11T15:42:08.013Z,99580.40
2018-02-11T15:44:34.182Z,99583.07
2018-02-11T15:47:00.654Z,99585.86
2018-02-11T15:49:26.832Z,99589.45
2018-02-11T15:51:53.016Z,99588.58
2018-02-11T15:54:19.602Z,99581.66
2018-02-11T15:56:45.761Z,99593.05
2018-02-11T15:59:11.925Z,99592.11
2018-02-11T16:01:38.735Z,99590.81
2018-02-11T16:04:04.893Z,99589.59
2018-02-11T16:06:31.067Z,99593.16
2018-02-11T16:08:57.625Z,99595.48
2018-02-11T16:11:23.780Z,99593.39
2018-02-11T16:13:49.954Z,99597.72
2018-02-11T16:16:16.159Z,99599.02
2018-02-11T16:18:42.312Z,99596.06
2018-02-11T16:21:08.532Z,99602.19
2018-02-11T16:23:34.998Z,99608.39
2018-02-11T16:26:01.206Z,99608.87
2018-02-11T16:28:27.767Z,99609.70
2018-02-11T16:30:53.933Z,99606.25
2018-02-11T16:33:20.114Z,99612.75
2018-02-11T16:35:46.336Z,99616.73
2018-02-11T16:38:12.482Z,99613.77
2018-02-11T16:40:38.650Z,99618.66
2018-02-11T16:43:05.127Z,99613.53
2018-02-11T16:45:31.295Z,99622.31
2018-02-11T16:47:57.457Z,99624.44
2018-02-11T16:50:23.681Z,99625.75
2018-02-11T16:52:49.834Z,99637.58
2018-02-11T16:55:15.989Z,99635.49
2018-02-11T16:57:42.186Z,99624.64
2018-02-11T17:00:08.659Z,99639.95
2018-02-11T17:02:34.875Z,99627.40
2018-02-11T17:05:01.087Z,99640.53
2018-02-11T17:07:27.253Z,99644.89
2018-02-11T17:09:53.490Z,99651.05
2018-02-11T17:12:19.663Z,99651.01
2018-02-11T17:14:45.885Z,99654.44
2018-02-11T17:17:12.096Z,99655.70
2018-02-11T17:19:38.260Z,99661.38
2018-02-11T17:22:04.675Z,99664.42
2018-02-11T17:24:30.895Z,99663.55
2018-02-11T17:26:57.338Z,99664.09
2018-02-11T17:29:23.544Z,99665.39
2018-02-11T17:31:49.791Z,99661.89
2018-02-11T17:34:16.009Z,99664.13
2018-02-11T17:36:42.456Z,99672.84
2018-02-11T17:39:08.678Z,99674.20
2018-02-11T17:41:34.917Z,99677.22
2018-02-11T17:44:01.068Z,99689.08
2018-02-11T17:46:27.287Z,99690.73
2018-02-11T17:48:53.806Z,99695.58
2018-02-11T17:51:20.038Z,99692.08
2018-02-11T17:53:46.191Z,99698.72
2018-02-11T17:56:12.348Z,99701.29
2018-02-11T17:58:38.559Z,99699.16
2018-02-11T18:01:04.740Z,99700.08
2018-02-11T18:03:30.919Z,99693.58
2018-02-11T18:05:57.500Z,99697.42
2018-02-11T18:08:23.669Z,99700.95
2018-02-11T18:10:50.158Z,99706.23
2018-02-11T18:13:17.004Z,99700.66
2018-02-11T18:15:43.438Z,99713.70
2018-02-11T18:18:09.583Z,99715.45
2018-02-11T18:20:36.092Z,99716.76
2018-02-11T18:23:02.268Z,99718.98
2018-02-11T18:25:28.445Z,99722.47
2018-02-11T18:27:55.418Z,99724.69
2018-02-11T18:30:21.604Z,99734.68
2018-02-11T18:32:47.776Z,99730.36
2018-02-11T18:35:14.003Z,99746.02
2018-02-11T18:37:40.175Z,99747.75
2018-02-11T18:40:06.387Z,99752.98
2018-02-11T18:42:32.989Z,99755.21
2018-02-11T18:44:59.402Z,99754.29
2018-02-11T18:47:25.939Z,99752.94
2018-02-11T18:49:52.539Z,99763.45
2018-02-11T18:52:18.679Z,99763.02
2018-02-11T18:54:44.839Z,99760.01
2018-02-11T18:57:11.050Z,99762.19
2018-02-11T18:59:37.220Z,99767.91
2018-02-11T19:02:03.392Z,99766.20
2018-02-11T19:04:29.634Z,99769.20
2018-02-11T19:06:55.782Z,99773.57
2018-02-11T19:09:21.955Z,99778.50
2018-02-11T19:11:48.557Z,99780.20
2018-02-11T19:14:14.730Z,99771.58
2018-02-11T19:16:40.906Z,99779.89
2018-02-11T19:19:07.139Z,99784.12
2018-02-11T19:21:33.311Z,99782.91
2018-02-11T19:23:59.471Z,99800.34
2018-02-11T19:26:25.999Z,99798.17
2018-02-11T19:28:52.171Z,99790.75
2018-02-11T19:31:18.660Z,99787.70
2018-02-11T19:33:44.808Z,99802.56
2018-02-11T19:36:10.970Z,99797.30
2018-02-11T19:38:37.186Z,99799.95
2018-02-11T19:41:03.370Z,99804.36
2018-02-11T19:43:29.531Z,99808.67
2018-02-11T19:45:55.749Z,99808.32
2018-02-11T19:48:21.927Z,99799.99
2018-02-11T19:50:48.086Z,99803.92
2018-02-11T19:53:14.554Z,99815.25
2018-02-11T19:55:47.562Z,99824.02
2018-02-11T19:58:13.795Z,99821.01
2018-02-11T20:00:40.256Z,99821.97
2018-02-11T20:03:06.406Z,99825.89
2018-02-11T20:05:32.603Z,99826.77
2018-02-11T20:07:58.760Z,99828.55
2018-02-11T20:10:24.978Z,99830.30
2018-02-11T20:12:51.179Z,99837.34
2018-02-11T20:15:17.356Z,99838.19
2018-02-11T20:17:43.856Z,99837.34
2018-02-11T20:20:10.012Z,99832.13
2018-02-11T20:22:36.266Z,99839.53
2018-02-11T20:25:02.457Z,99843.45
2018-02-11T20:27:28.970Z,99848.69
2018-02-11T20:29:55.178Z,99845.55
2018-02-11T20:32:21.409Z,99853.04
2018-02-11T20:34:47.593Z,99854.75
2018-02-11T20:37:13.806Z,99848.98
2018-02-11T20:39:40.318Z,99860.84
2018-02-11T20:42:06.472Z,99857.88
2018-02-11T20:44:32.982Z,99859.19
2018-02-11T20:46:59.135Z,99850.08
2018-02-11T20:49:25.287Z,99855.27
2018-02-11T20:51:51.484Z,99865.25
2018-02-11T20:54:17.662Z,99859.98
2018-02-11T20:56:43.822Z,99860.06
2018-02-11T20:59:10.367Z,99868.77
2018-02-11T21:01:36.527Z,99868.34
2018-02-11T21:04:03.010Z,99864.80
2018-02-11T21:06:29.616Z,99871.35
2018-02-11T21:08:55.771Z,99882.02
2018-02-11T21:11:21.920Z,99884.63
2018-02-11T21:13:48.146Z,99885.91
2018-02-11T21:16:14.328Z,99891.61
2018-02-11T21:18:40.500Z,99889.91
2018-02-11T21:21:06.694Z,99888.61
2018-02-11T21:23:33.144Z,99886.47
2018-02-11T21:25:59.635Z,99883.41
2018-02-11T21:28:25.817Z,99894.39
2018-02-11T21:30:51.977Z,99893.08
2018-02-11T21:33:18.631Z,99901.45
2018-02-11T21:35:44.775Z,99905.77
2018-02-11T21:38:10.924Z,99908.34
2018-02-11T21:40:37.190Z,99916.58
2018-02-11T21:43:03.337Z,99915.78
2018-02-11T21:45:29.507Z,99918.44
2018-02-11T21:47:55.715Z,99922.36
2018-02-11T21:50:21.863Z,99928.03
2018-02-11T21:52:48.294Z,99929.30
2018-02-11T21:55:21.514Z,99924.50
2018-02-11T21:57:47.688Z,99931.43
2018-02-11T22:00:14.155Z,99924.45
2018-02-11T22:02:40.330Z,99929.73
2018-02-11T22:05:06.514Z,99937.14
2018-02-11T22:07:32.722Z,99932.30
2018-02-11T22:09:58.888Z,99929.21
2018-02-11T22:12:25.062Z,99932.70
2018-02-11T22:14:51.296Z,99930.52
2018-02-11T22:17:17.439Z,99931.87
2018-02-11T22:19:43.675Z,99937.45
2018-02-11T22:22:10.501Z,99940.46
2018-02-11T22:24:36.651Z,99940.86
2018-02-11T22:27:02.857Z,99943.59
2018-02-11T22:29:29.435Z,99945.26
2018-02-11T22:31:55.579Z,99949.13
2018-02-11T22:34:21.755Z,99946.05
2018-02-11T22:36:48.286Z,99947.39
2018-02-11T22:39:14.459Z,99939.98
2018-02-11T22:41:40.945Z,99945.26
2018-02-11T22:44:07.156Z,99950.53
2018-02-11T22:46:33.304Z,99943.55
2018-02-11T22:48:59.452Z,99947.48
2018-02-11T22:51:25.640Z,99955.23
2018-02-11T22:53:51.798Z,99961.30
2018-02-11T22:56:17.964Z,99953.10
2018-02-11T22:58:44.206Z,99965.74
2018-02-11T23:01:10.366Z,99954.41
2018-02-11T23:03:36.796Z,99965.73
2018-02-11T23:06:03.325Z,99961.42
2018-02-11T23:08:29.535Z,99967.48
2018-02-11T23:10:55.708Z,99974.02
2018-02-11T23:13:21.879Z,99970.97
2018-02-11T23:15:48.057Z,99974.42
2018-02-11T23:18:14.199Z,99981.47
2018-02-11T23:20:40.387Z,99985.00
2018-02-11T23:23:06.545Z,99978.02
2018-02-11T23:25:32.771Z,99973.66
2018-02-11T23:27:58.963Z,99985.91
2018-02-11T23:30:25.184Z,99991.21
2018-02-11T23:32:51.771Z,99994.27
2018-02-11T23:35:17.939Z,99992.05
2018-02-11T23:37:44.124Z,99992.48
2018-02-11T23:40:10.791Z,99993.44
2018-02-11T23:42:36.949Z,99994.78
2018-02-11T23:45:03.202Z,100001.36
2018-02-11T23:47:29.428Z,100000.84
2018-02-11T23:49:55.604Z,99995.30
2018-02-11T23:52:21.746Z,99995.73
2018-02-11T23:54:48.345Z,99995.25
2018-02-11T23:57:14.503Z,100007.05
2018-02-11T23:59:40.642Z,99999.21
